EDLP Airport Information

Runway Information
Runway 06 Length 7152 ft width 148 ft
Elevation 699 ft Threshold 0 ft Heading 57
Runway 24 Length 7152 ft Width 148 ft
Elevation 674 ft Threshold 0 ft Heading 237
Airport Frequencies
Type ATIS Name ATIS Frequency 125.725 MHZ
Type GND Name GND Frequency 121.925 MHZ
Type INFO Name LANGEN INF Frequency 129.875 MHZ
Type OPS Name DISPATCH Frequency 130.425 MHZ
Type RDR Name LANGEN RAD Frequency 125.225 MHZ
Type TWR Name TWR Frequency 133.375 MHZ
Airport Navaids
Type NDB-DME Name Paderborn/Lippstadt Frequency 354 KHZ
Airport Weather Information & NOTAM
ADDS - METARS form results

(2103 UTC 17 November 2018)
Data provider http://aviationweather.gov/metar/data/
 
METAR text: EDLP 172050Z 09008KT CAVOK 01/M03 Q1032
Conditions at: EDLP (PADERBORN/LIPPST, DE) observed 2050 UTC 17 November 2018
Temperature: 1.0°C (34°F)
Dewpoint: -3.0°C (27°F) [RH = 75%]
Pressure (altimeter): 30.47 inches Hg (1032.0 mb)
Winds: from the E (90 degrees) at 9 MPH (8 knots; 4.1 m/s)
Visibility: 6 or more miles (10+ km)
Ceiling: ceiling and visibility are OK
Clouds: unknown
Weather: no significant weather observed at this time

METAR text: EDLP 172020Z 10007KT 070V130 CAVOK 02/M03 Q1032
Conditions at: EDLP (PADERBORN/LIPPST, DE) observed 2020 UTC 17 November 2018
Temperature: 2.0°C (36°F)
Dewpoint: -3.0°C (27°F) [RH = 69%]
Pressure (altimeter): 30.47 inches Hg (1032.0 mb)
Winds: from the E (100 degrees) at 8 MPH (7 knots; 3.6 m/s)
Visibility: 6 or more miles (10+ km)
Ceiling: ceiling and visibility are OK
Clouds: unknown
Weather: no significant weather observed at this time

Forecast for: EDLP (PADERBORN/LIPPST, DE)
Text: TAF EDLP 171700Z 1718/1818 09008KT CAVOK
Forecast period: 1800 UTC 17 November 2018 to 1800 UTC 18 November 2018
Forecast type: FROM: standard forecast or significant change
Winds: from the E (90 degrees) at 9 MPH (8 knots; 4.1 m/s)
Visibility: 6 or more miles 10+ km)
Ceiling: unknown
Clouds: missing
Weather: NSW  (no significant weather)